Flight Track Log - Related Links

Times and Time Zones

All times are in EDT time to prevent confusion due to time zone crossing. See the N112BJ flight status page for this flight to view local times or setup timezone preferences in your user account.

Time Position Orientation Groundspeed Altitude Reporting Facility
EDT Latitude Longitude Course Direction KTS MPH feet Rate Location/Type
Mon 07:19:39 PM 31.0903 -84.5956 346° North 252 290 7,500  Level Jacksonville Center
Mon 07:20:38 PM 31.1631 -84.6164 346° North 259 298 11,300 3,250 Climbing Jacksonville Center
Mon 07:21:39 PM 31.2400 -84.6444 343° North 264 304 14,000 2,579 Climbing Jacksonville Center
Mon 07:22:39 PM 31.3189 -84.6678 346° North 277 319 16,500 2,017 Climbing Jacksonville Center
Mon 07:23:38 PM 31.4000 -84.6914 346° North 289 333 18,000 750 Climbing Jacksonville Center
Mon 07:24:39 PM 31.4956 -84.7225 344° North 317 365 18,000  Level Jacksonville Center
Mon 07:25:39 PM 31.5956 -84.7536 345° North 351 404 18,000  Level Jacksonville Center
Mon 07:26:17 PM 31.6608 -84.7733 346° North 379 436 18,000  Level Atlanta Center
Mon 07:27:17 PM 31.7608 -84.8033 346° North 385 443 18,000  Level Atlanta Center
Mon 07:28:17 PM 31.8631 -84.8336 346° North 379 436 18,000  Level Atlanta Center
Mon 07:29:17 PM 31.9608 -84.8664 344° North 373 429 18,000  Level Atlanta Center
Mon 07:30:17 PM 32.0589 -84.8992 344° North 368 423 18,000  Level Atlanta Center
Mon 07:31:17 PM 32.1608 -84.9294 346° North 368 423 18,000  Level Atlanta Center
Mon 07:32:17 PM 32.2753 -84.9625 346° North 374 430 18,000  Level Atlanta Center
Mon 07:33:17 PM 32.3775 -84.9956 345° North 379 436 18,000  Level Atlanta Center
Mon 07:34:17 PM 32.4817 -85.0261 346° North 379 436 18,000  Level Atlanta Center
Mon 07:35:17 PM 32.5878 -85.0594 345° North 379 436 18,000 -100 Level Atlanta Center
Mon 07:36:17 PM 32.6878 -85.0903 345° North 379 436 17,800 -1,100 Descending Atlanta Center
Mon 07:37:17 PM 32.7917 -85.1236 345° North 379 436 15,800 -2,000 Descending Atlanta Center
Mon 07:38:17 PM 32.8894 -85.1544 345° North 379 436 13,800 -1,900 Descending Atlanta Center
Mon 07:39:17 PM 32.9853 -85.1853 345° North 356 410 12,000 -1,350 Descending Atlanta Center
Mon 07:40:17 PM 33.0750 -85.2064 349° North 356 410 11,100 -500 Descending Atlanta Center
Mon 07:41:17 PM 33.1775 -85.1781 13° North 370 426 11,000 -50 Descending Atlanta Center
Mon 07:42:17 PM 33.2717 -85.1444 17° North 362 417 11,000 -350 Level Atlanta Center
Mon 07:43:17 PM 33.3594 -85.1231 12° North 334 384 10,300 -1,350 Descending Atlanta Center
Mon 07:44:17 PM 33.4411 -85.1067 10° North 309 356 8,300 -2,000 Descending Atlanta Center
Mon 07:45:17 PM 33.5225 -85.1028 North 295 339 6,300 -2,050 Descending Atlanta Center
Mon 07:46:17 PM 33.6081 -85.0964 North 289 333 4,200 -1,650 Descending Atlanta Center
Mon 07:47:17 PM 33.6772 -85.0622 22° Northeast 276 318 3,000 -600 Descending Atlanta Center
Mon 07:48:17 PM 33.7133 -84.9928 58° Northeast 240 276 3,000 7,080 Level Atlanta Center
Mon 07:50:37 PM 33.7333 -84.8167 82° East 225 259 26,600  Climbing Atlanta TRACON
Mon 07:51:37 PM 33.7500 -84.7500 73° East 215 247 3,000 -11,800 Descending Atlanta TRACON
Mon 07:52:37 PM 33.7500 -84.6833 90° East 202 232 3,000 -250 Level Atlanta TRACON
Mon 07:53:37 PM 33.7667 -84.6167 73° East 181 208 2,500 -750 Descending Atlanta TRACON
Mon 07:54:37 PM 33.7667 -84.5667 90° East 143 165 1,500 -1,000 Descending Atlanta TRACON
Mon 07:56:00 PM 33.7791 -84.5214 72° East  Level Estimated
Mon 08:03:00 PM 33.7791 -84.5214 90° East  Level Estimated
Mon 08:04:00 PM 33.7791 -84.5214 90° East  Level Estimated

Login

Don't have an account? Register now (free) for customized features, flight alerts, and more!